Time,TemperatureF,DewpointF,PressureIn,WindDirection,WindDirectionDegrees,WindSpeedMPH,WindSpeedGustMPH,Humidity,HourlyPrecipIn,Conditions,Clouds,dailyrainin,SoftwareType,DateUTC
2013-07-18 00:01:00,68.4,63.4,29.94,SE,135,0.5,1.1,84,0.00,CLR,,0.00,WeatherDisplay:10.37,2013-07-18 06:01:00,
2013-07-18 00:06:00,68.2,63.5,29.94,SSE,158,1.0,2.3,85,0.00,CLR,,0.00,WeatherDisplay:10.37,2013-07-18 06:06:00,
2013-07-18 00:11:00,68.2,63.5,29.94,East,90,0.0,1.1,85,0.00,CLR,,0.00,WeatherDisplay:10.37,2013-07-18 06:11:00,
2013-07-18 00:16:00,68.0,63.3,29.94,East,90,0.8,1.1,85,0.00,CLR,,0.00,WeatherDisplay:10.37,2013-07-18 06:16:00,
2013-07-18 00:21:00,67.8,63.1,29.94,ESE,112,2.4,2.4,85,0.00,CLR,,0.00,WeatherDisplay:10.37,2013-07-18 06:21:00,
2013-07-18 00:26:00,67.8,63.1,29.92,ESE,112,3.0,3.5,85,0.00,CLR,,0.00,WeatherDisplay:10.37,2013-07-18 06:26:00,
2013-07-18 00:31:00,67.6,62.9,29.92,ESE,112,3.0,3.5,85,0.00,CLR,,0.00,WeatherDisplay:10.37,2013-07-18 06:31:00,
2013-07-18 00:36:00,67.5,62.8,29.92,NNE,22,0.0,0.0,85,0.00,CLR,,0.00,WeatherDisplay:10.37,2013-07-18 06:36:00,
2013-07-18 00:41:00,67.3,62.6,29.92,NW,315,0.0,0.0,85,0.00,CLR,,0.00,WeatherDisplay:10.37,2013-07-18 06:41:00,
2013-07-18 00:46:00,67.1,62.8,29.92,NE,45,0.0,0.0,86,0.00,CLR,,0.00,WeatherDisplay:10.37,2013-07-18 06:46:00,
2013-07-18 00:51:00,66.9,62.9,29.91,ESE,112,0.8,1.1,87,0.00,CLR,,0.00,WeatherDisplay:10.37,2013-07-18 06:51:00,
2013-07-18 00:56:00,66.9,62.9,29.91,ESE,112,0.0,0.0,87,0.00,CLR,,0.00,WeatherDisplay:10.37,2013-07-18 06:56:00,
2013-07-18 01:01:00,66.7,63.0,29.91,East,90,0.1,1.1,88,0.00,CLR,,0.00,WeatherDisplay:10.37,2013-07-18 07:01:00,
2013-07-18 01:06:00,66.7,63.0,29.91,SE,135,0.0,0.0,88,0.00,CLR,,0.00,WeatherDisplay:10.37,2013-07-18 07:06:00,
2013-07-18 01:11:00,66.6,62.9,29.91,ESE,112,0.0,1.1,88,0.00,CLR,,0.00,WeatherDisplay:10.37,2013-07-18 07:11:00,
2013-07-18 01:16:00,66.6,62.9,29.90,ESE,112,0.0,0.0,88,0.00,CLR,,0.00,WeatherDisplay:10.37,2013-07-18 07:16:00,
2013-07-18 01:21:00,66.4,63.1,29.90,East,90,0.0,0.0,89,0.00,CLR,,0.00,WeatherDisplay:10.37,2013-07-18 07:21:00,
2013-07-18 01:26:00,66.4,63.1,29.90,WSW,248,0.0,1.1,89,0.00,CLR,,0.00,WeatherDisplay:10.37,2013-07-18 07:26:00,
2013-07-18 01:31:00,66.2,62.9,29.90,SSW,202,0.0,0.0,89,0.00,CLR,,0.00,WeatherDisplay:10.37,2013-07-18 07:31:00,
2013-07-18 01:36:00,66.2,62.9,29.90,SSW,202,0.0,0.0,89,0.00,CLR,,0.00,WeatherDisplay:10.37,2013-07-18 07:36:00,
2013-07-18 01:42:00,66.0,62.7,29.90,SW,225,0.0,0.0,89,0.00,CLR,,0.00,WeatherDisplay:10.37,2013-07-18 07:42:00,
2013-07-18 01:47:00,65.8,62.8,29.90,South,180,0.0,0.0,90,0.00,CLR,,0.00,WeatherDisplay:10.37,2013-07-18 07:47:00,
2013-07-18 01:52:00,65.8,62.8,29.89,South,180,0.0,0.0,90,0.00,CLR,,0.00,WeatherDisplay:10.37,2013-07-18 07:52:00,
2013-07-18 01:57:00,65.7,62.7,29.89,SW,225,0.0,0.0,90,0.00,CLR,,0.00,WeatherDisplay:10.37,2013-07-18 07:57:00,
2013-07-18 02:02:00,65.7,62.7,29.89,SW,225,0.0,0.0,90,0.00,CLR,,0.00,WeatherDisplay:10.37,2013-07-18 08:02:00,
2013-07-18 02:07:00,65.7,62.7,29.89,SSW,202,0.0,0.0,90,0.00,CLR,,0.00,WeatherDisplay:10.37,2013-07-18 08:07:00,
2013-07-18 02:12:00,65.7,63.0,29.89,SSW,202,0.0,0.0,91,0.00,CLR,,0.00,WeatherDisplay:10.37,2013-07-18 08:12:00,
2013-07-18 02:17:00,65.7,63.0,29.88,SW,225,1.5,2.3,91,0.00,CLR,,0.00,WeatherDisplay:10.37,2013-07-18 08:17:00,
2013-07-18 02:22:00,65.5,62.8,29.88,SSE,158,0.0,1.1,91,0.00,CLR,,0.00,WeatherDisplay:10.37,2013-07-18 08:22:00,
2013-07-18 02:27:00,65.1,62.4,29.88,WNW,292,0.0,0.0,91,0.00,CLR,,0.00,WeatherDisplay:10.37,2013-07-18 08:27:00,
2013-07-18 02:32:00,65.1,62.4,29.88,West,270,0.0,0.0,91,0.00,CLR,,0.00,WeatherDisplay:10.37,2013-07-18 08:32:00,
2013-07-18 02:37:00,65.1,62.4,29.88,SSW,202,0.0,0.0,91,0.00,CLR,,0.00,WeatherDisplay:10.37,2013-07-18 08:37:00,
2013-07-18 02:42:00,64.9,62.2,29.88,WNW,292,0.0,0.0,91,0.00,CLR,,0.00,WeatherDisplay:10.37,2013-07-18 08:42:00,
2013-07-18 02:47:00,64.9,62.2,29.88,WNW,292,0.0,0.0,91,0.00,CLR,,0.00,WeatherDisplay:10.37,2013-07-18 08:47:00,
2013-07-18 02:52:00,64.8,62.1,29.88,WNW,292,0.0,0.0,91,0.00,CLR,,0.00,WeatherDisplay:10.37,2013-07-18 08:52:00,
2013-07-18 02:57:00,64.8,62.4,29.88,SE,135,0.0,0.0,92,0.00,CLR,,0.00,WeatherDisplay:10.37,2013-07-18 08:57:00,
2013-07-18 03:02:00,64.8,62.4,29.88,NW,315,0.0,0.0,92,0.00,CLR,,0.00,WeatherDisplay:10.37,2013-07-18 09:02:00,
2013-07-18 03:07:00,64.8,62.4,29.87,WSW,248,0.0,0.0,92,0.00,CLR,,0.00,WeatherDisplay:10.37,2013-07-18 09:07:00,
2013-07-18 03:12:00,64.8,62.4,29.87,SW,225,0.3,1.1,92,0.00,CLR,,0.00,WeatherDisplay:10.37,2013-07-18 09:12:00,
2013-07-18 03:17:00,64.8,62.7,29.87,West,270,1.0,1.7,93,0.00,CLR,,0.00,WeatherDisplay:10.37,2013-07-18 09:17:00,
2013-07-18 03:22:00,64.8,62.7,29.87,SW,225,0.0,0.0,93,0.00,CLR,,0.00,WeatherDisplay:10.37,2013-07-18 09:22:00,
2013-07-18 03:27:00,64.6,62.5,29.86,SSW,202,0.9,1.1,93,0.00,CLR,,0.00,WeatherDisplay:10.37,2013-07-18 09:27:00,
2013-07-18 03:32:00,64.8,62.7,29.86,West,270,2.7,3.5,93,0.00,CLR,,0.00,WeatherDisplay:10.37,2013-07-18 09:32:00,
2013-07-18 03:37:00,64.9,62.8,29.86,WNW,292,0.5,2.3,93,0.00,CLR,,0.00,WeatherDisplay:10.37,2013-07-18 09:37:00,
2013-07-18 03:42:00,64.9,62.8,29.87,ESE,112,1.8,3.7,93,0.00,CLR,,0.00,WeatherDisplay:10.37,2013-07-18 09:42:00,
2013-07-18 03:47:00,64.9,62.5,29.87,SE,135,2.8,4.6,92,0.00,CLR,,0.00,WeatherDisplay:10.37,2013-07-18 09:47:00,
2013-07-18 03:52:00,65.1,62.7,29.88,West,270,3.1,4.6,92,0.00,CLR,,0.00,WeatherDisplay:10.37,2013-07-18 09:52:00,
2013-07-18 03:57:00,65.1,62.1,29.88,WNW,292,5.1,5.8,90,0.00,CLR,,0.00,WeatherDisplay:10.37,2013-07-18 09:57:00,
2013-07-18 04:02:00,65.1,62.1,29.88,SE,135,2.6,3.5,90,0.00,CLR,,0.00,WeatherDisplay:10.37,2013-07-18 10:02:00,
2013-07-18 04:07:00,65.1,62.1,29.89,West,270,2.7,4.6,90,0.00,CLR,,0.00,WeatherDisplay:10.37,2013-07-18 10:07:00,
2013-07-18 04:12:00,65.5,62.2,29.89,West,270,1.5,1.5,89,0.00,CLR,,0.00,WeatherDisplay:10.37,2013-07-18 10:12:00,
2013-07-18 04:17:00,65.7,62.0,29.88,East,90,0.9,1.1,88,0.00,CLR,,0.00,WeatherDisplay:10.37,2013-07-18 10:17:00,
2013-07-18 04:22:00,65.7,62.0,29.88,South,180,2.0,2.7,88,0.00,CLR,,0.00,WeatherDisplay:10.37,2013-07-18 10:22:00,
2013-07-18 04:27:00,65.7,62.0,29.88,WNW,292,2.9,5.8,88,0.00,CLR,,0.00,WeatherDisplay:10.37,2013-07-18 10:27:00,
2013-07-18 04:32:00,65.5,61.9,29.88,NNW,338,2.9,5.8,88,0.00,CLR,,0.00,WeatherDisplay:10.37,2013-07-18 10:32:00,
2013-07-18 04:37:00,65.5,61.9,29.88,SW,225,1.1,2.3,88,0.00,CLR,,0.00,WeatherDisplay:10.37,2013-07-18 10:37:00,
2013-07-18 04:42:00,65.3,62.0,29.88,West,270,1.5,1.7,89,0.00,CLR,,0.00,WeatherDisplay:10.37,2013-07-18 10:42:00,
2013-07-18 04:47:00,65.1,61.8,29.88,NW,315,2.9,3.5,89,0.00,CLR,,0.00,WeatherDisplay:10.37,2013-07-18 10:47:00,
2013-07-18 04:52:00,65.1,61.8,29.87,SSW,202,0.6,1.1,89,0.00,CLR,,0.00,WeatherDisplay:10.37,2013-07-18 10:52:00,
2013-07-18 04:57:00,65.1,61.8,29.87,WNW,292,1.1,2.3,89,0.00,CLR,,0.00,WeatherDisplay:10.37,2013-07-18 10:57:00,
2013-07-18 05:02:00,65.1,61.8,29.88,West,270,1.7,2.3,89,0.00,CLR,,0.00,WeatherDisplay:10.37,2013-07-18 11:02:00,
2013-07-18 05:07:00,64.9,61.6,29.88,ENE,68,1.6,2.3,89,0.00,CLR,,0.00,WeatherDisplay:10.37,2013-07-18 11:07:00,
2013-07-18 05:12:00,64.9,61.6,29.88,WNW,292,0.8,1.7,89,0.00,CLR,,0.00,WeatherDisplay:10.37,2013-07-18 11:12:00,
2013-07-18 05:17:00,64.9,61.6,29.88,South,180,0.1,1.1,89,0.00,CLR,,0.00,WeatherDisplay:10.37,2013-07-18 11:17:00,
2013-07-18 05:22:00,64.9,61.6,29.88,WSW,248,0.0,0.0,89,0.00,CLR,,0.00,WeatherDisplay:10.37,2013-07-18 11:22:00,
2013-07-18 05:27:00,64.9,61.6,29.89,NNW,338,2.4,2.4,89,0.00,CLR,,0.00,WeatherDisplay:10.37,2013-07-18 11:27:00,
2013-07-18 05:32:00,64.9,61.6,29.89,WNW,292,1.7,1.7,89,0.00,CLR,,0.00,WeatherDisplay:10.37,2013-07-18 11:32:00,
2013-07-18 05:37:00,64.9,61.6,29.89,SW,225,2.8,2.8,89,0.00,CLR,,0.00,WeatherDisplay:10.37,2013-07-18 11:37:00,
2013-07-18 05:42:00,64.9,61.6,29.89,WNW,292,1.6,1.6,89,0.00,CLR,,0.00,WeatherDisplay:10.37,2013-07-18 11:42:00,
2013-07-18 05:47:00,65.1,61.8,29.89,ESE,112,0.2,1.1,89,0.00,CLR,,0.00,WeatherDisplay:10.37,2013-07-18 11:47:00,
2013-07-18 05:52:00,65.7,62.0,29.90,NW,315,0.2,1.1,88,0.00,CLR,,0.00,WeatherDisplay:10.37,2013-07-18 11:52:00,
2013-07-18 05:57:00,65.5,61.9,29.90,NNW,338,1.1,2.3,88,0.00,CLR,,0.00,WeatherDisplay:10.37,2013-07-18 11:57:00,
2013-07-18 06:02:00,65.5,61.9,29.90,North,360,3.2,3.5,88,0.00,CLR,,0.00,WeatherDisplay:10.37,2013-07-18 12:02:00,
2013-07-18 06:07:00,65.5,61.9,29.90,WSW,248,1.7,2.3,88,0.00,CLR,,0.00,WeatherDisplay:10.37,2013-07-18 12:07:00,
2013-07-18 06:12:00,65.5,61.9,29.90,NNE,22,2.1,3.5,88,0.00,CLR,,0.00,WeatherDisplay:10.37,2013-07-18 12:12:00,
2013-07-18 06:17:00,65.7,62.0,29.90,ESE,112,0.7,2.3,88,0.00,CLR,,0.00,WeatherDisplay:10.37,2013-07-18 12:17:00,
2013-07-18 06:22:00,65.8,62.1,29.90,East,90,2.5,3.5,88,0.00,CLR,,0.00,WeatherDisplay:10.37,2013-07-18 12:22:00,
2013-07-18 06:27:00,65.8,62.1,29.90,ENE,68,3.4,5.8,88,0.00,CLR,,0.00,WeatherDisplay:10.37,2013-07-18 12:27:00,
2013-07-18 06:32:00,65.8,62.1,29.90,ESE,112,1.2,2.3,88,0.00,CLR,,0.00,WeatherDisplay:10.37,2013-07-18 12:32:00,
2013-07-18 06:37:00,65.8,62.1,29.90,ENE,68,0.5,3.5,88,0.00,CLR,,0.00,WeatherDisplay:10.37,2013-07-18 12:37:00,
2013-07-18 06:42:00,65.8,62.1,29.90,East,90,2.5,3.2,88,0.00,CLR,,0.00,WeatherDisplay:10.37,2013-07-18 12:42:00,
2013-07-18 06:47:00,66.0,62.3,29.90,West,270,1.9,3.2,88,0.00,CLR,,0.00,WeatherDisplay:10.37,2013-07-18 12:47:00,
2013-07-18 06:52:00,66.2,62.5,29.91,ENE,68,0.8,2.3,88,0.00,CLR,,0.00,WeatherDisplay:10.37,2013-07-18 12:52:00,
2013-07-18 06:57:00,66.4,62.4,29.91,WNW,292,1.6,1.7,87,0.00,CLR,,0.00,WeatherDisplay:10.37,2013-07-18 12:57:00,
2013-07-18 07:02:00,66.9,62.6,29.90,NNE,22,1.4,1.7,86,0.00,CLR,,0.00,WeatherDisplay:10.37,2013-07-18 13:02:00,
2013-07-18 07:07:00,67.1,62.4,29.90,ENE,68,1.6,2.3,85,0.00,CLR,,0.00,WeatherDisplay:10.37,2013-07-18 13:07:00,
2013-07-18 07:12:00,67.5,62.8,29.90,West,270,0.4,2.3,85,0.00,CLR,,0.00,WeatherDisplay:10.37,2013-07-18 13:12:00,
2013-07-18 07:17:00,67.6,62.9,29.91,NW,315,1.2,2.7,85,0.00,CLR,,0.00,WeatherDisplay:10.37,2013-07-18 13:17:00,
2013-07-18 07:22:00,67.5,62.5,29.91,WNW,292,3.2,3.2,84,0.00,SCT,,0.00,WeatherDisplay:10.37,2013-07-18 13:22:00,
2013-07-18 07:28:00,67.8,62.8,29.91,WNW,292,2.6,3.5,84,0.00,SCT,,0.00,WeatherDisplay:10.37,2013-07-18 13:28:00,
2013-07-18 07:33:00,68.2,62.8,29.91,East,90,2.2,2.3,83,0.00,SCT,,0.00,WeatherDisplay:10.37,2013-07-18 13:33:00,
2013-07-18 07:38:00,68.7,63.0,29.91,NNE,22,2.8,2.8,82,0.00,SCT,,0.00,WeatherDisplay:10.37,2013-07-18 13:38:00,
2013-07-18 07:43:00,68.7,63.0,29.91,SE,135,0.0,0.0,82,0.00,BKN,,0.00,WeatherDisplay:10.37,2013-07-18 13:43:00,
2013-07-18 07:48:00,68.7,63.0,29.91,NW,315,0.4,2.2,82,0.00,BKN,,0.00,WeatherDisplay:10.37,2013-07-18 13:48:00,
2013-07-18 07:53:00,69.1,63.0,29.91,SW,225,2.0,2.7,81,0.00,BKN,,0.00,WeatherDisplay:10.37,2013-07-18 13:53:00,
2013-07-18 07:58:00,69.4,63.7,29.91,NNW,338,0.0,1.1,82,0.00,BKN,,0.00,WeatherDisplay:10.37,2013-07-18 13:58:00,
2013-07-18 08:03:00,68.9,62.8,29.92,WNW,292,1.4,3.5,81,0.00,BKN,,0.00,WeatherDisplay:10.37,2013-07-18 14:03:00,
2013-07-18 08:08:00,70.0,63.5,29.92,NNE,22,2.0,3.5,80,0.00,BKN,,0.00,WeatherDisplay:10.37,2013-07-18 14:08:00,
2013-07-18 08:13:00,70.2,63.4,29.92,NW,315,3.3,3.5,79,0.00,BKN,,0.00,WeatherDisplay:10.37,2013-07-18 14:13:00,
2013-07-18 08:18:00,70.3,63.8,29.91,SW,225,1.7,1.7,80,0.00,BKN,,0.00,WeatherDisplay:10.37,2013-07-18 14:18:00,
2013-07-18 08:23:00,69.6,63.5,29.91,WSW,248,2.6,4.6,81,0.00,BKN,,0.00,WeatherDisplay:10.37,2013-07-18 14:23:00,
2013-07-18 08:28:00,69.6,63.5,29.91,SW,225,3.3,4.7,81,0.00,BKN,,0.00,WeatherDisplay:10.37,2013-07-18 14:28:00,
2013-07-18 08:33:00,70.2,63.7,29.91,West,270,2.1,3.7,80,0.00,BKN,,0.00,WeatherDisplay:10.37,2013-07-18 14:33:00,
2013-07-18 08:38:00,70.3,63.8,29.91,West,270,2.7,5.8,80,0.00,BKN,,0.00,WeatherDisplay:10.37,2013-07-18 14:38:00,
2013-07-18 08:43:00,70.7,64.2,29.91,SW,225,2.2,3.5,80,0.00,SCT,,0.00,WeatherDisplay:10.37,2013-07-18 14:43:00,
2013-07-18 08:48:00,70.7,64.2,29.91,SSW,202,4.7,6.9,80,0.00,SCT,,0.00,WeatherDisplay:10.37,2013-07-18 14:48:00,
2013-07-18 08:53:00,71.4,64.9,29.92,SW,225,2.1,6.9,80,0.00,SCT,,0.00,WeatherDisplay:10.37,2013-07-18 14:53:00,
2013-07-18 08:58:00,72.3,65.1,29.92,NW,315,3.6,4.6,78,0.00,SCT,,0.00,WeatherDisplay:10.37,2013-07-18 14:58:00,
2013-07-18 09:03:00,72.0,64.8,29.92,West,270,3.0,3.5,78,0.00,FEW,,0.00,WeatherDisplay:10.37,2013-07-18 15:03:00,
2013-07-18 09:08:00,72.0,64.8,29.92,SW,225,3.9,4.6,78,0.00,FEW,,0.00,WeatherDisplay:10.37,2013-07-18 15:08:00,
2013-07-18 09:13:00,72.1,65.2,29.92,WSW,248,2.3,3.5,79,0.00,FEW,,0.00,WeatherDisplay:10.37,2013-07-18 15:13:00,
2013-07-18 09:18:00,71.8,64.9,29.91,NNW,338,2.6,4.6,79,0.00,FEW,,0.00,WeatherDisplay:10.37,2013-07-18 15:18:00,
2013-07-18 09:23:00,72.0,64.8,29.91,WNW,292,2.5,3.5,78,0.00,FEW,,0.00,WeatherDisplay:10.37,2013-07-18 15:23:00,
2013-07-18 09:28:00,72.0,64.8,29.91,South,180,2.4,2.4,78,0.00,FEW,,0.00,WeatherDisplay:10.37,2013-07-18 15:28:00,
2013-07-18 09:33:00,73.0,65.7,29.91,ESE,112,1.6,2.3,78,0.00,FEW,,0.00,WeatherDisplay:10.37,2013-07-18 15:33:00,
2013-07-18 09:38:00,73.2,65.6,29.91,WSW,248,4.0,4.6,77,0.00,FEW,,0.00,WeatherDisplay:10.37,2013-07-18 15:38:00,
2013-07-18 09:43:00,73.4,65.7,29.91,WSW,248,2.6,4.6,77,0.00,FEW,,0.00,WeatherDisplay:10.37,2013-07-18 15:43:00,
2013-07-18 09:48:00,73.9,65.9,29.91,SW,225,4.3,5.8,76,0.00,FEW,,0.00,WeatherDisplay:10.37,2013-07-18 15:48:00,
2013-07-18 09:53:00,74.1,66.0,29.90,North,360,3.0,4.6,76,0.00,FEW,,0.00,WeatherDisplay:10.37,2013-07-18 15:53:00,
2013-07-18 09:58:00,74.7,66.6,29.90,East,90,2.1,3.5,76,0.00,FEW,,0.00,WeatherDisplay:10.37,2013-07-18 15:58:00,
2013-07-18 10:03:00,75.0,66.5,29.89,SW,225,4.0,4.6,75,0.00,CLR,,0.00,WeatherDisplay:10.37,2013-07-18 16:03:00,
2013-07-18 10:08:00,75.4,66.9,29.89,SW,225,5.5,5.8,75,0.00,CLR,,0.00,WeatherDisplay:10.37,2013-07-18 16:08:00,
2013-07-18 10:13:00,76.1,67.6,29.89,SSW,202,2.4,3.5,75,0.00,CLR,,0.00,WeatherDisplay:10.37,2013-07-18 16:13:00,
2013-07-18 10:18:00,76.8,67.9,29.89,WSW,248,1.9,3.5,74,0.00,CLR,,0.00,WeatherDisplay:10.37,2013-07-18 16:18:00,
2013-07-18 10:23:00,77.7,68.0,29.89,SSW,202,3.5,4.6,72,0.00,CLR,,0.00,WeatherDisplay:10.37,2013-07-18 16:23:00,
2013-07-18 10:28:00,78.4,68.2,29.90,WSW,248,4.0,5.3,71,0.00,CLR,,0.00,WeatherDisplay:10.37,2013-07-18 16:28:00,
2013-07-18 10:33:00,78.6,68.4,29.90,SW,225,4.4,5.8,71,0.00,CLR,,0.00,WeatherDisplay:10.37,2013-07-18 16:33:00,
2013-07-18 10:38:00,79.9,69.2,29.90,WSW,248,4.0,6.9,70,0.00,CLR,,0.00,WeatherDisplay:10.37,2013-07-18 16:38:00,
2013-07-18 10:39:00,79.9,69.2,29.89,WSW,248,5.5,6.9,70,0.00,CLR,,0.00,WeatherDisplay:10.37,2013-07-18 16:39:00,
2013-07-18 10:44:00,80.8,69.2,29.89,SSW,202,3.0,4.6,68,0.00,CLR,,0.00,WeatherDisplay:10.37,2013-07-18 16:44:00,
2013-07-18 10:49:00,80.6,68.6,29.90,West,270,4.3,8.1,67,0.00,CLR,,0.00,WeatherDisplay:10.37,2013-07-18 16:49:00,
2013-07-18 10:54:00,81.0,69.0,29.90,WSW,248,6.3,7.3,67,0.00,CLR,,0.00,WeatherDisplay:10.37,2013-07-18 16:54:00,
2013-07-18 10:59:00,80.8,68.8,29.90,SSW,202,4.1,4.6,67,0.00,CLR,,0.00,WeatherDisplay:10.37,2013-07-18 16:59:00,
2013-07-18 11:04:00,81.5,68.6,29.89,NNE,22,3.9,4.6,65,0.00,CLR,,0.00,WeatherDisplay:10.37,2013-07-18 17:04:00,
2013-07-18 11:09:00,81.9,69.0,29.89,WNW,292,5.3,5.8,65,0.00,CLR,,0.00,WeatherDisplay:10.37,2013-07-18 17:09:00,
2013-07-18 11:14:00,82.4,69.4,29.89,West,270,4.4,7.3,65,0.00,CLR,,0.00,WeatherDisplay:10.37,2013-07-18 17:14:00,
2013-07-18 11:19:00,82.4,69.0,29.89,NNE,22,3.6,4.6,64,0.00,CLR,,0.00,WeatherDisplay:10.37,2013-07-18 17:19:00,
2013-07-18 11:24:00,82.2,68.8,29.89,ESE,112,4.0,6.9,64,0.00,CLR,,0.00,WeatherDisplay:10.37,2013-07-18 17:24:00,
2013-07-18 11:29:00,83.1,68.7,29.89,North,360,4.5,6.3,62,0.00,CLR,,0.00,WeatherDisplay:10.37,2013-07-18 17:29:00,
2013-07-18 11:34:00,83.1,68.7,29.89,NNW,338,5.1,6.9,62,0.00,CLR,,0.00,WeatherDisplay:10.37,2013-07-18 17:34:00,
2013-07-18 11:39:00,83.5,68.6,29.89,WNW,292,5.2,5.8,61,0.00,CLR,,0.00,WeatherDisplay:10.37,2013-07-18 17:39:00,
2013-07-18 11:44:00,83.3,68.4,29.89,NNW,338,5.1,6.9,61,0.00,CLR,,0.00,WeatherDisplay:10.37,2013-07-18 17:44:00,
2013-07-18 11:49:00,84.4,68.5,29.89,WNW,292,5.3,6.9,59,0.00,CLR,,0.00,WeatherDisplay:10.37,2013-07-18 17:49:00,
2013-07-18 11:54:00,84.4,69.0,29.89,WNW,292,4.3,5.8,60,0.00,CLR,,0.00,WeatherDisplay:10.37,2013-07-18 17:54:00,
2013-07-18 11:59:00,84.7,69.8,29.89,NW,315,3.3,4.6,61,0.00,CLR,,0.00,WeatherDisplay:10.37,2013-07-18 17:59:00,
2013-07-18 12:04:00,85.3,69.8,29.89,NE,45,3.4,3.7,60,0.00,CLR,,0.00,WeatherDisplay:10.37,2013-07-18 18:04:00,
2013-07-18 12:09:00,85.1,68.7,29.89,WSW,248,6.2,10.9,58,0.00,CLR,,0.00,WeatherDisplay:10.37,2013-07-18 18:09:00,
2013-07-18 12:14:00,85.3,68.8,29.89,ESE,112,3.7,5.8,58,0.00,CLR,,0.00,WeatherDisplay:10.37,2013-07-18 18:14:00,
2013-07-18 12:19:00,84.6,68.7,29.89,NW,315,3.8,4.6,59,0.00,CLR,,0.00,WeatherDisplay:10.37,2013-07-18 18:19:00,
2013-07-18 12:24:00,85.5,69.0,29.89,NW,315,6.5,10.4,58,0.00,CLR,,0.00,WeatherDisplay:10.37,2013-07-18 18:24:00,
2013-07-18 12:29:00,85.1,69.2,29.88,WNW,292,3.6,3.7,59,0.00,CLR,,0.00,WeatherDisplay:10.37,2013-07-18 18:29:00,
2013-07-18 12:34:00,86.5,69.5,29.88,SW,225,4.5,7.3,57,0.00,CLR,,0.00,WeatherDisplay:10.37,2013-07-18 18:34:00,
2013-07-18 12:39:00,86.0,69.0,29.88,SW,225,3.4,4.6,57,0.00,CLR,,0.00,WeatherDisplay:10.37,2013-07-18 18:39:00,
2013-07-18 12:44:00,87.1,69.5,29.88,NW,315,5.8,8.1,56,0.00,CLR,,0.00,WeatherDisplay:10.37,2013-07-18 18:44:00,
2013-07-18 12:49:00,86.4,69.9,29.88,West,270,4.2,5.8,58,0.00,CLR,,0.00,WeatherDisplay:10.37,2013-07-18 18:49:00,
2013-07-18 12:54:00,86.7,69.1,29.88,NNW,338,5.9,6.9,56,0.00,CLR,,0.00,WeatherDisplay:10.37,2013-07-18 18:54:00,
2013-07-18 12:59:00,86.7,69.1,29.88,NNW,338,7.3,10.4,56,0.00,CLR,,0.00,WeatherDisplay:10.37,2013-07-18 18:59:00,
2013-07-18 13:04:00,86.2,68.1,29.88,WSW,248,6.2,6.9,55,0.00,CLR,,0.00,WeatherDisplay:10.37,2013-07-18 19:04:00,
2013-07-18 13:09:00,86.9,68.3,29.88,NNW,338,3.3,4.6,54,0.00,CLR,,0.00,WeatherDisplay:10.37,2013-07-18 19:09:00,
2013-07-18 13:14:00,87.1,68.4,29.88,NW,315,6.2,8.1,54,0.00,CLR,,0.00,WeatherDisplay:10.37,2013-07-18 19:14:00,
2013-07-18 13:19:00,87.8,68.5,29.88,NW,315,6.2,7.3,53,0.00,CLR,,0.00,WeatherDisplay:10.37,2013-07-18 19:19:00,
2013-07-18 13:24:00,87.1,67.9,29.88,ESE,112,4.8,8.1,53,0.00,CLR,,0.00,WeatherDisplay:10.37,2013-07-18 19:24:00,
2013-07-18 13:29:00,87.1,66.8,29.88,West,270,5.8,8.1,51,0.00,CLR,,0.00,WeatherDisplay:10.37,2013-07-18 19:29:00,
2013-07-18 13:34:00,87.6,67.2,29.88,WSW,248,4.3,6.9,51,0.00,CLR,,0.00,WeatherDisplay:10.37,2013-07-18 19:34:00,
2013-07-18 13:39:00,86.9,67.2,29.87,WNW,292,5.5,7.3,52,0.00,CLR,,0.00,WeatherDisplay:10.37,2013-07-18 19:39:00,
2013-07-18 13:44:00,87.1,68.4,29.87,West,270,5.5,8.1,54,0.00,CLR,,0.00,WeatherDisplay:10.37,2013-07-18 19:44:00,
2013-07-18 13:49:00,87.6,66.7,29.87,ENE,68,4.4,7.3,50,0.00,CLR,,0.00,WeatherDisplay:10.37,2013-07-18 19:49:00,
2013-07-18 13:54:00,86.7,67.0,29.88,NNW,338,8.9,10.4,52,0.00,CLR,,0.00,WeatherDisplay:10.37,2013-07-18 19:54:00,
2013-07-18 13:59:00,87.1,67.3,29.88,West,270,4.0,6.9,52,0.00,CLR,,0.00,WeatherDisplay:10.37,2013-07-18 19:59:00,
2013-07-18 14:04:00,87.6,67.2,29.88,NNW,338,4.1,5.8,51,0.00,CLR,,0.00,WeatherDisplay:10.37,2013-07-18 20:04:00,
2013-07-18 14:09:00,87.1,67.3,29.88,West,270,4.9,8.1,52,0.00,CLR,,0.00,WeatherDisplay:10.37,2013-07-18 20:09:00,
2013-07-18 14:14:00,86.2,67.6,29.88,NNW,338,5.8,9.2,54,0.00,CLR,,0.00,WeatherDisplay:10.37,2013-07-18 20:14:00,
2013-07-18 14:19:00,86.4,67.8,29.88,West,270,4.6,6.9,54,0.00,CLR,,0.00,WeatherDisplay:10.37,2013-07-18 20:19:00,
2013-07-18 14:24:00,86.7,67.5,29.88,NNW,338,5.5,5.8,53,0.00,CLR,,0.00,WeatherDisplay:10.37,2013-07-18 20:24:00,
2013-07-18 14:29:00,86.5,67.3,29.88,NNW,338,4.7,8.1,53,0.00,CLR,,0.00,WeatherDisplay:10.37,2013-07-18 20:29:00,
2013-07-18 14:34:00,86.4,67.2,29.88,SW,225,4.0,8.1,53,0.00,CLR,,0.00,WeatherDisplay:10.37,2013-07-18 20:34:00,
2013-07-18 14:39:00,86.5,67.3,29.88,West,270,6.9,10.4,53,0.00,CLR,,0.00,WeatherDisplay:10.37,2013-07-18 20:39:00,
2013-07-18 14:44:00,86.2,67.6,29.88,West,270,6.0,10.4,54,0.00,CLR,,0.00,WeatherDisplay:10.37,2013-07-18 20:44:00,
2013-07-18 14:49:00,86.0,67.4,29.88,West,270,6.0,8.1,54,0.00,CLR,,0.00,WeatherDisplay:10.37,2013-07-18 20:49:00,
2013-07-18 14:54:00,85.6,67.0,29.88,WNW,292,5.0,8.1,54,0.00,CLR,,0.00,WeatherDisplay:10.37,2013-07-18 20:54:00,
2013-07-18 14:59:00,85.8,66.7,29.88,West,270,5.8,10.4,53,0.00,CLR,,0.00,WeatherDisplay:10.37,2013-07-18 20:59:00,
2013-07-18 15:04:00,85.8,66.1,29.88,WSW,248,7.0,9.2,52,0.00,CLR,,0.00,WeatherDisplay:10.37,2013-07-18 21:04:00,
2013-07-18 15:09:00,86.4,66.1,29.88,WNW,292,5.7,9.2,51,0.00,CLR,,0.00,WeatherDisplay:10.37,2013-07-18 21:09:00,
2013-07-18 15:14:00,86.2,65.9,29.88,West,270,6.0,11.9,51,0.00,CLR,,0.00,WeatherDisplay:10.37,2013-07-18 21:14:00,
2013-07-18 15:19:00,85.8,66.1,29.88,West,270,5.0,5.8,52,0.00,CLR,,0.00,WeatherDisplay:10.37,2013-07-18 21:19:00,
2013-07-18 15:24:00,86.7,66.4,29.88,WNW,292,5.7,6.9,51,0.00,CLR,,0.00,WeatherDisplay:10.37,2013-07-18 21:24:00,
2013-07-18 15:29:00,86.5,66.8,29.88,SW,225,2.4,4.6,52,0.00,CLR,,0.00,WeatherDisplay:10.37,2013-07-18 21:29:00,
2013-07-18 15:35:00,87.1,67.3,29.88,SW,225,5.1,6.9,52,0.00,CLR,,0.00,WeatherDisplay:10.37,2013-07-18 21:35:00,
2013-07-18 15:40:00,86.7,67.0,29.88,North,360,2.5,4.2,52,0.00,CLR,,0.00,WeatherDisplay:10.37,2013-07-18 21:40:00,
2013-07-18 15:45:00,86.5,66.8,29.88,WNW,292,7.6,11.5,52,0.00,CLR,,0.00,WeatherDisplay:10.37,2013-07-18 21:45:00,
2013-07-18 15:50:00,87.3,66.4,29.88,West,270,4.7,5.8,50,0.00,CLR,,0.00,WeatherDisplay:10.37,2013-07-18 21:50:00,
2013-07-18 15:55:00,87.1,65.6,29.87,NNW,338,4.0,5.8,49,0.00,CLR,,0.00,WeatherDisplay:10.37,2013-07-18 21:55:00,
2013-07-18 16:00:00,86.4,63.2,29.87,West,270,7.6,8.1,46,0.00,CLR,,0.00,WeatherDisplay:10.37,2013-07-18 22:00:00,
2013-07-18 16:05:00,86.7,62.2,29.88,West,270,4.1,8.1,44,0.00,SCT,,0.00,WeatherDisplay:10.37,2013-07-18 22:05:00,
2013-07-18 16:10:00,86.5,61.3,29.88,WSW,248,4.2,5.8,43,0.00,SCT,,0.00,WeatherDisplay:10.37,2013-07-18 22:10:00,
2013-07-18 16:15:00,86.7,60.2,29.88,SSE,158,5.4,10.4,41,0.00,SCT,,0.00,WeatherDisplay:10.37,2013-07-18 22:15:00,
2013-07-18 16:20:00,86.7,60.2,29.88,NNW,338,4.1,9.2,41,0.00,SCT,,0.00,WeatherDisplay:10.37,2013-07-18 22:20:00,
2013-07-18 16:25:00,87.1,59.1,29.88,NNW,338,3.8,5.8,39,0.00,SCT,,0.00,WeatherDisplay:10.37,2013-07-18 22:25:00,
2013-07-18 16:30:00,86.9,59.0,29.88,NW,315,7.1,10.4,39,0.00,SCT,,0.00,WeatherDisplay:10.37,2013-07-18 22:30:00,
2013-07-18 16:35:00,87.1,59.8,29.88,West,270,7.9,11.9,40,0.00,SCT,,0.00,WeatherDisplay:10.37,2013-07-18 22:35:00,
2013-07-18 16:40:00,86.7,59.5,29.88,WSW,248,4.9,8.1,40,0.00,SCT,,0.00,WeatherDisplay:10.37,2013-07-18 22:40:00,
2013-07-18 16:45:00,86.7,58.8,29.88,NNW,338,9.0,11.5,39,0.00,SCT,,0.00,WeatherDisplay:10.37,2013-07-18 22:45:00,
2013-07-18 16:50:00,87.4,59.4,29.88,WSW,248,5.3,7.8,39,0.00,SCT,,0.00,WeatherDisplay:10.37,2013-07-18 22:50:00,
2013-07-18 16:55:00,87.1,59.8,29.87,NE,45,3.9,8.1,40,0.00,SCT,,0.00,WeatherDisplay:10.37,2013-07-18 22:55:00,
2013-07-18 17:00:00,87.6,58.9,29.87,NE,45,6.2,9.2,38,0.00,SCT,,0.00,WeatherDisplay:10.37,2013-07-18 23:00:00,
2013-07-18 17:05:00,87.1,58.4,29.88,West,270,7.0,9.2,38,0.00,CLR,,0.00,WeatherDisplay:10.37,2013-07-18 23:05:00,
2013-07-18 17:10:00,87.3,57.8,29.88,West,270,4.8,5.8,37,0.00,CLR,,0.00,WeatherDisplay:10.37,2013-07-18 23:10:00,
2013-07-18 17:15:00,87.4,54.8,29.87,WSW,248,6.6,8.1,33,0.00,CLR,,0.00,WeatherDisplay:10.37,2013-07-18 23:15:00,
2013-07-18 17:20:00,87.3,54.7,29.87,West,270,9.8,11.5,33,0.00,CLR,,0.00,WeatherDisplay:10.37,2013-07-18 23:20:00,
2013-07-18 17:25:00,87.1,55.3,29.87,NNE,22,5.8,9.4,34,0.00,CLR,,0.00,WeatherDisplay:10.37,2013-07-18 23:25:00,
2013-07-18 17:30:00,87.1,56.1,29.87,SW,225,6.3,10.4,35,0.00,CLR,,0.00,WeatherDisplay:10.37,2013-07-18 23:30:00,
2013-07-18 17:35:00,86.7,55.8,29.87,NW,315,7.6,10.4,35,0.00,CLR,,0.00,WeatherDisplay:10.37,2013-07-18 23:35:00,
2013-07-18 17:40:00,86.5,57.1,29.87,West,270,4.4,5.3,37,0.00,CLR,,0.00,WeatherDisplay:10.37,2013-07-18 23:40:00,
2013-07-18 17:45:00,86.2,53.7,29.87,NE,45,4.8,5.8,33,0.00,CLR,,0.00,WeatherDisplay:10.37,2013-07-18 23:45:00,
2013-07-18 17:50:00,86.0,52.7,29.87,SW,225,5.8,8.3,32,0.00,CLR,,0.00,WeatherDisplay:10.37,2013-07-18 23:50:00,
2013-07-18 17:55:00,85.8,53.4,29.87,SSE,158,5.0,9.4,33,0.00,CLR,,0.00,WeatherDisplay:10.37,2013-07-18 23:55:00,
2013-07-18 18:00:00,85.5,53.9,29.87,South,180,6.3,6.9,34,0.00,CLR,,0.00,WeatherDisplay:10.37,2013-07-19 00:00:00,
2013-07-18 18:05:00,85.6,53.2,29.87,NW,315,6.6,7.3,33,0.00,CLR,,0.00,WeatherDisplay:10.37,2013-07-19 00:05:00,
2013-07-18 18:10:00,85.5,53.9,29.87,West,270,7.4,10.4,34,0.00,CLR,,0.00,WeatherDisplay:10.37,2013-07-19 00:10:00,
2013-07-18 18:15:00,85.3,53.8,29.87,West,270,5.0,8.8,34,0.00,CLR,,0.00,WeatherDisplay:10.37,2013-07-19 00:15:00,
2013-07-18 18:20:00,85.1,51.1,29.87,WSW,248,5.7,10.4,31,0.00,CLR,,0.00,WeatherDisplay:10.37,2013-07-19 00:20:00,
2013-07-18 18:25:00,85.3,47.5,29.87,NW,315,11.7,16.1,27,0.00,CLR,,0.00,WeatherDisplay:10.37,2013-07-19 00:25:00,
2013-07-18 18:30:00,85.3,49.4,29.88,North,360,5.1,8.3,29,0.00,CLR,,0.00,WeatherDisplay:10.37,2013-07-19 00:30:00,
2013-07-18 18:35:00,84.9,49.1,29.88,NNW,338,5.9,8.1,29,0.00,CLR,,0.00,WeatherDisplay:10.37,2013-07-19 00:35:00,
2013-07-18 18:40:00,84.9,49.1,29.88,SW,225,5.4,8.8,29,0.00,CLR,,0.00,WeatherDisplay:10.37,2013-07-19 00:40:00,
2013-07-18 18:45:00,84.6,47.9,29.88,NNW,338,6.3,10.4,28,0.00,CLR,,0.00,WeatherDisplay:10.37,2013-07-19 00:45:00,
2013-07-18 18:50:00,84.4,48.7,29.88,SSW,202,4.8,5.8,29,0.00,CLR,,0.00,WeatherDisplay:10.37,2013-07-19 00:50:00,
2013-07-18 18:55:00,84.2,49.4,29.88,NW,315,5.5,8.3,30,0.00,CLR,,0.00,WeatherDisplay:10.37,2013-07-19 00:55:00,
2013-07-18 19:00:00,83.8,49.9,29.88,West,270,4.0,4.6,31,0.00,CLR,,0.00,WeatherDisplay:10.37,2013-07-19 01:00:00,
2013-07-18 19:05:00,83.3,50.4,29.88,West,270,3.7,3.7,32,0.00,CLR,,0.00,WeatherDisplay:10.37,2013-07-19 01:05:00,
2013-07-18 19:10:00,83.3,50.4,29.88,West,270,3.7,4.7,32,0.00,CLR,,0.00,WeatherDisplay:10.37,2013-07-19 01:10:00,
2013-07-18 19:15:00,83.3,51.2,29.88,NW,315,4.4,5.8,33,0.00,CLR,,0.00,WeatherDisplay:10.37,2013-07-19 01:15:00,
2013-07-18 19:20:00,83.3,52.0,29.88,West,270,4.0,5.8,34,0.00,CLR,,0.00,WeatherDisplay:10.37,2013-07-19 01:20:00,
2013-07-18 19:25:00,82.9,53.2,29.89,WNW,292,3.5,7.3,36,0.00,CLR,,0.00,WeatherDisplay:10.37,2013-07-19 01:25:00,
2013-07-18 19:30:00,82.4,53.5,29.89,NW,315,4.5,5.8,37,0.00,CLR,,0.00,WeatherDisplay:10.37,2013-07-19 01:30:00,
2013-07-18 19:35:00,82.0,53.2,29.89,WSW,248,3.6,5.8,37,0.00,CLR,,0.00,WeatherDisplay:10.37,2013-07-19 01:35:00,
2013-07-18 19:40:00,81.9,53.1,29.89,West,270,5.6,5.8,37,0.00,CLR,,0.00,WeatherDisplay:10.37,2013-07-19 01:40:00,
2013-07-18 19:45:00,81.3,52.5,29.89,West,270,4.8,6.9,37,0.00,CLR,,0.00,WeatherDisplay:10.37,2013-07-19 01:45:00,
2013-07-18 19:50:00,81.1,53.1,29.89,NNW,338,4.1,5.8,38,0.00,CLR,,0.00,WeatherDisplay:10.37,2013-07-19 01:50:00,
2013-07-18 19:56:00,81.0,53.0,29.89,West,270,3.1,4.6,38,0.00,CLR,,0.00,WeatherDisplay:10.37,2013-07-19 01:56:00,
2013-07-18 20:01:00,80.8,52.1,29.89,NNW,338,3.9,5.8,37,0.00,CLR,,0.00,WeatherDisplay:10.37,2013-07-19 02:01:00,
2013-07-18 20:06:00,80.4,52.5,29.89,SW,225,4.5,5.8,38,0.00,CLR,,0.00,WeatherDisplay:10.37,2013-07-19 02:06:00,
2013-07-18 20:11:00,80.1,52.2,29.89,WNW,292,3.7,4.6,38,0.00,CLR,,0.00,WeatherDisplay:10.37,2013-07-19 02:11:00,
2013-07-18 20:16:00,79.9,52.0,29.90,WSW,248,3.1,4.6,38,0.00,CLR,,0.00,WeatherDisplay:10.37,2013-07-19 02:16:00,
2013-07-18 20:21:00,79.9,52.0,29.90,West,270,3.8,5.8,38,0.00,CLR,,0.00,WeatherDisplay:10.37,2013-07-19 02:21:00,
2013-07-18 20:26:00,79.3,52.2,29.90,NW,315,4.2,5.8,39,0.00,CLR,,0.00,WeatherDisplay:10.37,2013-07-19 02:26:00,
2013-07-18 20:31:00,78.6,52.3,29.90,NNW,338,3.3,5.8,40,0.00,CLR,,0.00,WeatherDisplay:10.37,2013-07-19 02:31:00,
2013-07-18 20:36:00,78.1,53.1,29.90,NW,315,3.2,4.2,42,0.00,CLR,,0.00,WeatherDisplay:10.37,2013-07-19 02:36:00,
2013-07-18 20:41:00,77.7,53.4,29.91,WNW,292,4.3,8.1,43,0.00,CLR,,0.00,WeatherDisplay:10.37,2013-07-19 02:41:00,
2013-07-18 20:46:00,77.0,53.4,29.91,SW,225,3.3,4.6,44,0.00,CLR,,0.00,WeatherDisplay:10.37,2013-07-19 02:46:00,
2013-07-18 20:51:00,76.6,53.7,29.91,NW,315,3.9,6.9,45,0.00,CLR,,0.00,WeatherDisplay:10.37,2013-07-19 02:51:00,
2013-07-18 20:56:00,76.3,54.0,29.91,SW,225,3.8,5.8,46,0.00,CLR,,0.00,WeatherDisplay:10.37,2013-07-19 02:56:00,
2013-07-18 21:01:00,76.1,54.4,29.91,WNW,292,3.1,4.6,47,0.00,CLR,,0.00,WeatherDisplay:10.37,2013-07-19 03:01:00,
2013-07-18 21:06:00,75.6,54.5,29.92,West,270,2.7,2.7,48,0.00,CLR,,0.00,WeatherDisplay:10.37,2013-07-19 03:06:00,
2013-07-18 21:11:00,75.2,55.3,29.92,SW,225,4.9,5.8,50,0.00,CLR,,0.00,WeatherDisplay:10.37,2013-07-19 03:11:00,
2013-07-18 21:16:00,74.8,55.5,29.93,WNW,292,3.8,5.8,51,0.00,CLR,,0.00,WeatherDisplay:10.37,2013-07-19 03:16:00,
2013-07-18 21:21:00,74.3,56.1,29.93,West,270,3.5,4.6,53,0.00,CLR,,0.00,WeatherDisplay:10.37,2013-07-19 03:21:00,
2013-07-18 21:26:00,73.9,55.7,29.93,NW,315,2.1,2.7,53,0.00,CLR,,0.00,WeatherDisplay:10.37,2013-07-19 03:26:00,
2013-07-18 21:31:00,73.6,55.9,29.94,North,360,2.7,3.7,54,0.00,CLR,,0.00,WeatherDisplay:10.37,2013-07-19 03:31:00,
2013-07-18 21:36:00,73.0,56.4,29.94,NNW,338,4.1,5.8,56,0.00,CLR,,0.00,WeatherDisplay:10.37,2013-07-19 03:36:00,
2013-07-18 21:41:00,72.7,56.6,29.94,NW,315,2.9,3.5,57,0.00,CLR,,0.00,WeatherDisplay:10.37,2013-07-19 03:41:00,
2013-07-18 21:46:00,72.5,56.9,29.94,NW,315,3.1,4.6,58,0.00,CLR,,0.00,WeatherDisplay:10.37,2013-07-19 03:46:00,
2013-07-18 21:51:00,72.1,57.4,29.95,WNW,292,3.7,5.8,60,0.00,CLR,,0.00,WeatherDisplay:10.37,2013-07-19 03:51:00,
2013-07-18 21:56:00,72.1,57.9,29.95,North,360,2.3,3.5,61,0.00,CLR,,0.00,WeatherDisplay:10.37,2013-07-19 03:56:00,
2013-07-18 22:01:00,71.8,58.1,29.95,WNW,292,4.4,5.8,62,0.00,CLR,,0.00,WeatherDisplay:10.37,2013-07-19 04:01:00,
2013-07-18 22:06:00,71.6,57.9,29.95,NE,45,3.1,3.5,62,0.00,CLR,,0.00,WeatherDisplay:10.37,2013-07-19 04:06:00,
2013-07-18 22:11:00,71.2,58.0,29.95,SSW,202,1.4,2.3,63,0.00,CLR,,0.00,WeatherDisplay:10.37,2013-07-19 04:11:00,
2013-07-18 22:16:00,71.1,58.3,29.96,WNW,292,2.9,3.5,64,0.00,CLR,,0.00,WeatherDisplay:10.37,2013-07-19 04:16:00,
2013-07-18 22:21:00,71.1,58.7,29.96,NW,315,2.6,2.6,65,0.00,CLR,,0.00,WeatherDisplay:10.37,2013-07-19 04:21:00,
2013-07-18 22:26:00,70.9,58.5,29.96,NNE,22,1.7,2.3,65,0.00,CLR,,0.00,WeatherDisplay:10.37,2013-07-19 04:26:00,
2013-07-18 22:31:00,70.9,58.5,29.96,South,180,0.8,1.1,65,0.00,CLR,,0.00,WeatherDisplay:10.37,2013-07-19 04:31:00,
2013-07-18 22:36:00,70.2,58.3,29.96,NNW,338,0.5,2.2,66,0.00,CLR,,0.00,WeatherDisplay:10.37,2013-07-19 04:36:00,
2013-07-18 22:41:00,69.8,58.3,29.96,SW,225,1.2,1.2,67,0.00,CLR,,0.00,WeatherDisplay:10.37,2013-07-19 04:41:00,
2013-07-18 22:46:00,69.4,58.4,29.96,West,270,0.1,1.1,68,0.00,CLR,,0.00,WeatherDisplay:10.37,2013-07-19 04:46:00,
2013-07-18 22:51:00,68.9,58.3,29.96,SW,225,0.5,1.7,69,0.00,CLR,,0.00,WeatherDisplay:10.37,2013-07-19 04:51:00,
2013-07-18 22:56:00,68.4,58.2,29.96,West,270,2.2,2.3,70,0.00,CLR,,0.00,WeatherDisplay:10.37,2013-07-19 04:56:00,
2013-07-18 23:01:00,68.0,58.2,29.96,WSW,248,2.2,2.3,71,0.00,CLR,,0.00,WeatherDisplay:10.37,2013-07-19 05:01:00,
2013-07-18 23:06:00,67.6,58.2,29.97,SW,225,3.1,3.5,72,0.00,CLR,,0.00,WeatherDisplay:10.37,2013-07-19 05:06:00,
2013-07-18 23:11:00,67.5,58.2,29.97,SW,225,0.2,1.7,72,0.00,CLR,,0.00,WeatherDisplay:10.37,2013-07-19 05:11:00,
2013-07-18 23:16:00,67.3,58.3,29.97,SW,225,0.7,1.1,73,0.00,CLR,,0.00,WeatherDisplay:10.37,2013-07-19 05:16:00,
2013-07-18 23:21:00,67.1,58.2,29.97,SW,225,1.6,2.2,73,0.00,CLR,,0.00,WeatherDisplay:10.37,2013-07-19 05:21:00,
2013-07-18 23:26:00,66.7,58.1,29.97,NW,315,0.0,1.1,74,0.00,CLR,,0.00,WeatherDisplay:10.37,2013-07-19 05:26:00,
2013-07-18 23:31:00,67.1,58.2,29.97,SW,225,1.3,1.3,73,0.00,CLR,,0.00,WeatherDisplay:10.37,2013-07-19 05:31:00,
2013-07-18 23:36:00,66.7,57.8,29.97,SW,225,1.3,1.7,73,0.00,CLR,,0.00,WeatherDisplay:10.37,2013-07-19 05:36:00,
2013-07-18 23:41:00,66.6,57.7,29.97,SE,135,0.6,1.1,73,0.00,CLR,,0.00,WeatherDisplay:10.37,2013-07-19 05:41:00,
2013-07-18 23:46:00,66.2,57.7,29.97,West,270,0.0,0.0,74,0.00,CLR,,0.00,WeatherDisplay:10.37,2013-07-19 05:46:00,
2013-07-18 23:51:00,66.0,57.5,29.97,North,360,0.9,1.1,74,0.00,CLR,,0.00,WeatherDisplay:10.37,2013-07-19 05:51:00,
2013-07-18 23:56:00,65.7,57.2,29.97,SSE,158,0.8,2.3,74,0.00,CLR,,0.00,WeatherDisplay:10.37,2013-07-19 05:56:00,